sensor_id;sensor_type;location;lat;lon;timestamp;P1;durP1;ratioP1;P2;durP2;ratioP2
4359;SDS011;2193;47.980;7.660;2022-07-21T00:01:49;18.17;;;13.87;;
4359;SDS011;2193;47.980;7.660;2022-07-21T00:04:15;22.50;;;15.33;;
4359;SDS011;2193;47.980;7.660;2022-07-21T00:06:43;18.60;;;13.47;;
4359;SDS011;2193;47.980;7.660;2022-07-21T00:09:09;23.13;;;13.40;;
4359;SDS011;2193;47.980;7.660;2022-07-21T00:11:34;18.30;;;14.60;;
4359;SDS011;2193;47.980;7.660;2022-07-21T00:13:59;21.70;;;13.30;;
4359;SDS011;2193;47.980;7.660;2022-07-21T00:16:25;21.80;;;14.07;;
4359;SDS011;2193;47.980;7.660;2022-07-21T00:18:50;23.33;;;15.37;;
4359;SDS011;2193;47.980;7.660;2022-07-21T00:21:15;29.57;;;15.90;;
4359;SDS011;2193;47.980;7.660;2022-07-21T00:23:40;26.00;;;17.20;;
4359;SDS011;2193;47.980;7.660;2022-07-21T00:26:06;22.50;;;15.30;;
4359;SDS011;2193;47.980;7.660;2022-07-21T00:28:31;22.70;;;16.00;;
4359;SDS011;2193;47.980;7.660;2022-07-21T00:30:56;23.50;;;16.80;;
4359;SDS011;2193;47.980;7.660;2022-07-21T00:33:21;33.07;;;19.40;;
4359;SDS011;2193;47.980;7.660;2022-07-21T00:35:46;28.40;;;18.50;;
4359;SDS011;2193;47.980;7.660;2022-07-21T00:38:12;27.23;;;17.83;;
4359;SDS011;2193;47.980;7.660;2022-07-21T00:40:37;28.07;;;18.60;;
4359;SDS011;2193;47.980;7.660;2022-07-21T00:43:02;26.40;;;17.60;;
4359;SDS011;2193;47.980;7.660;2022-07-21T00:45:27;29.97;;;18.67;;
4359;SDS011;2193;47.980;7.660;2022-07-21T00:47:53;38.70;;;17.77;;
4359;SDS011;2193;47.980;7.660;2022-07-21T00:50:18;29.60;;;19.33;;
4359;SDS011;2193;47.980;7.660;2022-07-21T00:52:45;25.97;;;19.13;;
4359;SDS011;2193;47.980;7.660;2022-07-21T00:55:11;29.80;;;20.00;;
4359;SDS011;2193;47.980;7.660;2022-07-21T00:57:38;26.57;;;20.00;;
4359;SDS011;2193;47.980;7.660;2022-07-21T01:00:04;27.53;;;21.10;;
4359;SDS011;2193;47.980;7.660;2022-07-21T01:02:29;27.20;;;20.83;;
4359;SDS011;2193;47.980;7.660;2022-07-21T01:04:56;25.63;;;20.47;;
4359;SDS011;2193;47.980;7.660;2022-07-21T01:07:22;26.37;;;21.90;;
4359;SDS011;2193;47.980;7.660;2022-07-21T01:09:47;24.80;;;20.30;;
4359;SDS011;2193;47.980;7.660;2022-07-21T01:12:12;28.50;;;20.90;;
4359;SDS011;2193;47.980;7.660;2022-07-21T01:14:38;27.30;;;20.40;;
4359;SDS011;2193;47.980;7.660;2022-07-21T01:17:03;28.43;;;23.07;;
4359;SDS011;2193;47.980;7.660;2022-07-21T01:19:28;28.67;;;21.43;;
4359;SDS011;2193;47.980;7.660;2022-07-21T01:21:54;26.30;;;21.47;;
4359;SDS011;2193;47.980;7.660;2022-07-21T01:24:19;27.57;;;20.80;;
4359;SDS011;2193;47.980;7.660;2022-07-21T01:26:45;28.53;;;22.17;;
4359;SDS011;2193;47.980;7.660;2022-07-21T01:29:11;28.03;;;22.27;;
4359;SDS011;2193;47.980;7.660;2022-07-21T01:31:37;28.83;;;23.30;;
4359;SDS011;2193;47.980;7.660;2022-07-21T01:34:02;29.60;;;23.10;;
4359;SDS011;2193;47.980;7.660;2022-07-21T01:36:28;36.50;;;24.47;;
4359;SDS011;2193;47.980;7.660;2022-07-21T01:38:53;33.50;;;23.70;;
4359;SDS011;2193;47.980;7.660;2022-07-21T01:41:37;29.93;;;23.37;;
4359;SDS011;2193;47.980;7.660;2022-07-21T01:44:06;29.00;;;22.90;;
4359;SDS011;2193;47.980;7.660;2022-07-21T01:46:32;29.60;;;23.27;;
4359;SDS011;2193;47.980;7.660;2022-07-21T01:48:58;27.37;;;22.57;;
4359;SDS011;2193;47.980;7.660;2022-07-21T01:51:23;26.63;;;22.27;;
4359;SDS011;2193;47.980;7.660;2022-07-21T01:53:48;27.60;;;22.53;;
4359;SDS011;2193;47.980;7.660;2022-07-21T01:56:14;28.87;;;23.37;;
4359;SDS011;2193;47.980;7.660;2022-07-21T01:58:39;35.07;;;23.00;;
4359;SDS011;2193;47.980;7.660;2022-07-21T02:01:04;27.47;;;24.10;;
4359;SDS011;2193;47.980;7.660;2022-07-21T02:03:30;30.50;;;23.17;;
4359;SDS011;2193;47.980;7.660;2022-07-21T02:06:04;31.47;;;23.53;;
4359;SDS011;2193;47.980;7.660;2022-07-21T02:08:30;30.10;;;22.87;;
4359;SDS011;2193;47.980;7.660;2022-07-21T02:10:55;29.53;;;23.10;;
4359;SDS011;2193;47.980;7.660;2022-07-21T02:13:21;28.60;;;22.10;;
4359;SDS011;2193;47.980;7.660;2022-07-21T02:15:46;30.10;;;23.27;;
4359;SDS011;2193;47.980;7.660;2022-07-21T02:18:11;32.10;;;23.03;;
4359;SDS011;2193;47.980;7.660;2022-07-21T02:20:36;27.23;;;22.73;;
4359;SDS011;2193;47.980;7.660;2022-07-21T02:23:01;29.93;;;22.63;;
4359;SDS011;2193;47.980;7.660;2022-07-21T02:25:26;30.87;;;23.80;;
4359;SDS011;2193;47.980;7.660;2022-07-21T02:27:52;26.53;;;22.53;;
4359;SDS011;2193;47.980;7.660;2022-07-21T02:30:17;28.27;;;22.17;;
4359;SDS011;2193;47.980;7.660;2022-07-21T02:32:42;26.80;;;21.73;;
4359;SDS011;2193;47.980;7.660;2022-07-21T02:35:08;25.53;;;21.60;;
4359;SDS011;2193;47.980;7.660;2022-07-21T02:37:33;26.83;;;22.67;;
4359;SDS011;2193;47.980;7.660;2022-07-21T02:39:58;33.33;;;23.57;;
4359;SDS011;2193;47.980;7.660;2022-07-21T02:42:23;26.90;;;20.77;;
4359;SDS011;2193;47.980;7.660;2022-07-21T02:44:48;25.13;;;19.20;;
4359;SDS011;2193;47.980;7.660;2022-07-21T02:47:13;24.77;;;19.27;;
4359;SDS011;2193;47.980;7.660;2022-07-21T02:49:39;24.20;;;20.20;;
4359;SDS011;2193;47.980;7.660;2022-07-21T02:52:04;27.33;;;18.60;;
4359;SDS011;2193;47.980;7.660;2022-07-21T02:54:30;25.67;;;21.07;;
4359;SDS011;2193;47.980;7.660;2022-07-21T02:56:55;27.73;;;19.17;;
4359;SDS011;2193;47.980;7.660;2022-07-21T02:59:20;22.00;;;19.30;;
4359;SDS011;2193;47.980;7.660;2022-07-21T03:01:45;22.27;;;19.00;;
4359;SDS011;2193;47.980;7.660;2022-07-21T03:04:10;22.87;;;19.50;;
4359;SDS011;2193;47.980;7.660;2022-07-21T03:06:36;18.50;;;16.60;;
4359;SDS011;2193;47.980;7.660;2022-07-21T03:09:02;24.63;;;20.10;;
4359;SDS011;2193;47.980;7.660;2022-07-21T03:11:27;30.00;;;23.90;;
4359;SDS011;2193;47.980;7.660;2022-07-21T03:13:52;30.10;;;23.90;;
4359;SDS011;2193;47.980;7.660;2022-07-21T03:16:18;29.77;;;24.70;;
4359;SDS011;2193;47.980;7.660;2022-07-21T03:18:43;26.03;;;20.43;;
4359;SDS011;2193;47.980;7.660;2022-07-21T03:21:08;26.20;;;22.47;;
4359;SDS011;2193;47.980;7.660;2022-07-21T03:23:33;26.93;;;22.90;;
4359;SDS011;2193;47.980;7.660;2022-07-21T03:25:58;24.53;;;21.47;;
4359;SDS011;2193;47.980;7.660;2022-07-21T03:28:24;32.13;;;23.03;;
4359;SDS011;2193;47.980;7.660;2022-07-21T03:30:49;26.40;;;22.90;;
4359;SDS011;2193;47.980;7.660;2022-07-21T03:33:14;25.77;;;22.73;;
4359;SDS011;2193;47.980;7.660;2022-07-21T03:35:39;30.50;;;22.77;;
4359;SDS011;2193;47.980;7.660;2022-07-21T03:38:05;30.40;;;24.27;;
4359;SDS011;2193;47.980;7.660;2022-07-21T03:40:32;27.43;;;22.30;;
4359;SDS011;2193;47.980;7.660;2022-07-21T03:42:58;28.67;;;24.00;;
4359;SDS011;2193;47.980;7.660;2022-07-21T03:45:24;28.03;;;23.30;;
4359;SDS011;2193;47.980;7.660;2022-07-21T03:47:50;30.80;;;23.80;;
4359;SDS011;2193;47.980;7.660;2022-07-21T03:50:15;29.90;;;21.23;;
4359;SDS011;2193;47.980;7.660;2022-07-21T03:52:44;28.50;;;20.67;;
4359;SDS011;2193;47.980;7.660;2022-07-21T03:55:09;24.13;;;19.87;;
4359;SDS011;2193;47.980;7.660;2022-07-21T03:57:35;26.30;;;21.43;;
4359;SDS011;2193;47.980;7.660;2022-07-21T04:00:01;27.03;;;22.80;;
4359;SDS011;2193;47.980;7.660;2022-07-21T04:02:26;27.47;;;22.37;;
4359;SDS011;2193;47.980;7.660;2022-07-21T04:04:51;28.40;;;22.07;;
4359;SDS011;2193;47.980;7.660;2022-07-21T04:07:16;29.73;;;22.20;;
4359;SDS011;2193;47.980;7.660;2022-07-21T04:09:41;39.30;;;25.33;;
4359;SDS011;2193;47.980;7.660;2022-07-21T04:12:07;30.17;;;24.20;;
4359;SDS011;2193;47.980;7.660;2022-07-21T04:14:32;30.97;;;24.27;;
4359;SDS011;2193;47.980;7.660;2022-07-21T04:16:57;34.73;;;25.90;;
4359;SDS011;2193;47.980;7.660;2022-07-21T04:19:22;33.60;;;26.40;;
4359;SDS011;2193;47.980;7.660;2022-07-21T04:21:47;29.73;;;24.10;;
4359;SDS011;2193;47.980;7.660;2022-07-21T04:24:13;29.00;;;24.03;;
4359;SDS011;2193;47.980;7.660;2022-07-21T04:26:38;35.10;;;26.20;;
4359;SDS011;2193;47.980;7.660;2022-07-21T04:29:03;31.13;;;24.37;;
4359;SDS011;2193;47.980;7.660;2022-07-21T04:31:29;31.03;;;25.40;;
4359;SDS011;2193;47.980;7.660;2022-07-21T04:33:54;32.50;;;26.40;;
4359;SDS011;2193;47.980;7.660;2022-07-21T04:36:19;30.70;;;23.67;;
4359;SDS011;2193;47.980;7.660;2022-07-21T04:38:44;32.93;;;25.10;;
4359;SDS011;2193;47.980;7.660;2022-07-21T04:41:09;27.77;;;23.63;;
4359;SDS011;2193;47.980;7.660;2022-07-21T04:43:34;30.37;;;23.67;;
4359;SDS011;2193;47.980;7.660;2022-07-21T04:46:00;32.53;;;24.03;;
4359;SDS011;2193;47.980;7.660;2022-07-21T04:48:25;35.27;;;24.57;;
4359;SDS011;2193;47.980;7.660;2022-07-21T04:50:50;40.10;;;25.83;;
4359;SDS011;2193;47.980;7.660;2022-07-21T04:53:16;32.07;;;24.70;;
4359;SDS011;2193;47.980;7.660;2022-07-21T04:55:41;37.67;;;24.87;;
4359;SDS011;2193;47.980;7.660;2022-07-21T04:58:06;32.50;;;24.80;;
4359;SDS011;2193;47.980;7.660;2022-07-21T05:00:31;29.93;;;23.67;;
4359;SDS011;2193;47.980;7.660;2022-07-21T05:02:56;33.37;;;24.17;;
4359;SDS011;2193;47.980;7.660;2022-07-21T05:05:22;27.80;;;22.90;;
4359;SDS011;2193;47.980;7.660;2022-07-21T05:07:48;29.03;;;22.87;;
4359;SDS011;2193;47.980;7.660;2022-07-21T05:10:14;30.73;;;22.40;;
4359;SDS011;2193;47.980;7.660;2022-07-21T05:12:39;25.00;;;20.93;;
4359;SDS011;2193;47.980;7.660;2022-07-21T05:15:06;29.00;;;23.50;;
4359;SDS011;2193;47.980;7.660;2022-07-21T05:17:32;26.63;;;19.80;;
4359;SDS011;2193;47.980;7.660;2022-07-21T05:19:58;28.77;;;20.73;;
4359;SDS011;2193;47.980;7.660;2022-07-21T05:22:23;24.33;;;21.50;;
4359;SDS011;2193;47.980;7.660;2022-07-21T05:24:49;26.50;;;21.00;;
4359;SDS011;2193;47.980;7.660;2022-07-21T05:27:14;28.53;;;22.10;;
4359;SDS011;2193;47.980;7.660;2022-07-21T05:29:39;27.77;;;22.10;;
4359;SDS011;2193;47.980;7.660;2022-07-21T05:32:04;30.83;;;22.57;;
4359;SDS011;2193;47.980;7.660;2022-07-21T05:34:30;32.17;;;24.37;;
4359;SDS011;2193;47.980;7.660;2022-07-21T05:36:55;30.63;;;21.70;;
4359;SDS011;2193;47.980;7.660;2022-07-21T05:39:20;28.60;;;22.87;;
4359;SDS011;2193;47.980;7.660;2022-07-21T05:41:45;30.80;;;22.27;;
4359;SDS011;2193;47.980;7.660;2022-07-21T05:44:10;29.13;;;22.60;;
4359;SDS011;2193;47.980;7.660;2022-07-21T05:46:36;32.97;;;23.03;;
4359;SDS011;2193;47.980;7.660;2022-07-21T05:49:01;28.70;;;22.30;;
4359;SDS011;2193;47.980;7.660;2022-07-21T05:51:26;31.60;;;21.47;;
4359;SDS011;2193;47.980;7.660;2022-07-21T05:53:51;26.80;;;22.83;;
4359;SDS011;2193;47.980;7.660;2022-07-21T05:56:17;28.33;;;21.47;;
4359;SDS011;2193;47.980;7.660;2022-07-21T05:58:42;29.30;;;22.27;;
4359;SDS011;2193;47.980;7.660;2022-07-21T06:01:07;32.43;;;22.23;;
4359;SDS011;2193;47.980;7.660;2022-07-21T06:03:38;25.87;;;22.33;;
4359;SDS011;2193;47.980;7.660;2022-07-21T06:06:03;25.23;;;21.97;;
4359;SDS011;2193;47.980;7.660;2022-07-21T06:08:29;26.37;;;21.90;;
4359;SDS011;2193;47.980;7.660;2022-07-21T06:10:54;26.37;;;20.33;;
4359;SDS011;2193;47.980;7.660;2022-07-21T06:13:19;26.27;;;21.40;;
4359;SDS011;2193;47.980;7.660;2022-07-21T06:15:45;33.10;;;21.17;;
4359;SDS011;2193;47.980;7.660;2022-07-21T06:18:10;26.60;;;21.00;;
4359;SDS011;2193;47.980;7.660;2022-07-21T06:20:35;30.17;;;21.87;;
4359;SDS011;2193;47.980;7.660;2022-07-21T06:23:00;26.10;;;20.87;;
4359;SDS011;2193;47.980;7.660;2022-07-21T06:25:25;27.93;;;21.93;;
4359;SDS011;2193;47.980;7.660;2022-07-21T06:27:50;28.57;;;21.03;;
4359;SDS011;2193;47.980;7.660;2022-07-21T06:30:16;28.50;;;21.97;;
4359;SDS011;2193;47.980;7.660;2022-07-21T06:32:41;31.20;;;22.70;;
4359;SDS011;2193;47.980;7.660;2022-07-21T06:35:06;28.70;;;21.83;;
4359;SDS011;2193;47.980;7.660;2022-07-21T06:37:31;31.27;;;22.20;;
4359;SDS011;2193;47.980;7.660;2022-07-21T06:39:57;27.10;;;21.50;;
4359;SDS011;2193;47.980;7.660;2022-07-21T06:42:22;28.80;;;21.80;;
4359;SDS011;2193;47.980;7.660;2022-07-21T06:44:48;24.93;;;21.50;;
4359;SDS011;2193;47.980;7.660;2022-07-21T06:47:13;25.20;;;21.80;;
4359;SDS011;2193;47.980;7.660;2022-07-21T06:49:38;26.83;;;22.03;;
4359;SDS011;2193;47.980;7.660;2022-07-21T06:52:03;26.87;;;21.67;;
4359;SDS011;2193;47.980;7.660;2022-07-21T06:54:29;23.80;;;19.77;;
4359;SDS011;2193;47.980;7.660;2022-07-21T06:56:54;24.10;;;20.33;;
4359;SDS011;2193;47.980;7.660;2022-07-21T06:59:19;22.80;;;19.40;;
4359;SDS011;2193;47.980;7.660;2022-07-21T07:01:44;23.50;;;19.73;;
4359;SDS011;2193;47.980;7.660;2022-07-21T07:04:09;23.87;;;19.57;;
4359;SDS011;2193;47.980;7.660;2022-07-21T07:06:35;23.47;;;18.67;;
4359;SDS011;2193;47.980;7.660;2022-07-21T07:09:00;27.30;;;19.67;;
4359;SDS011;2193;47.980;7.660;2022-07-21T07:11:25;27.40;;;20.10;;
4359;SDS011;2193;47.980;7.660;2022-07-21T07:13:50;23.17;;;19.67;;
4359;SDS011;2193;47.980;7.660;2022-07-21T07:16:15;23.37;;;19.27;;
4359;SDS011;2193;47.980;7.660;2022-07-21T07:18:41;23.90;;;18.30;;
4359;SDS011;2193;47.980;7.660;2022-07-21T07:21:06;19.90;;;17.80;;
4359;SDS011;2193;47.980;7.660;2022-07-21T07:23:31;19.10;;;16.53;;
4359;SDS011;2193;47.980;7.660;2022-07-21T07:25:56;23.83;;;18.40;;
4359;SDS011;2193;47.980;7.660;2022-07-21T07:28:21;26.63;;;18.20;;
4359;SDS011;2193;47.980;7.660;2022-07-21T07:30:47;25.60;;;17.50;;
4359;SDS011;2193;47.980;7.660;2022-07-21T07:33:13;21.77;;;17.47;;
4359;SDS011;2193;47.980;7.660;2022-07-21T07:35:38;17.67;;;15.77;;
4359;SDS011;2193;47.980;7.660;2022-07-21T07:38:03;19.67;;;16.30;;
4359;SDS011;2193;47.980;7.660;2022-07-21T07:40:29;19.13;;;17.00;;
4359;SDS011;2193;47.980;7.660;2022-07-21T07:42:54;18.00;;;15.97;;
4359;SDS011;2193;47.980;7.660;2022-07-21T07:45:20;18.63;;;15.73;;
4359;SDS011;2193;47.980;7.660;2022-07-21T07:47:45;19.70;;;16.53;;
4359;SDS011;2193;47.980;7.660;2022-07-21T07:50:11;18.10;;;15.50;;
4359;SDS011;2193;47.980;7.660;2022-07-21T07:52:37;19.50;;;14.83;;
4359;SDS011;2193;47.980;7.660;2022-07-21T07:55:03;19.50;;;14.97;;
4359;SDS011;2193;47.980;7.660;2022-07-21T07:57:31;15.17;;;13.30;;
4359;SDS011;2193;47.980;7.660;2022-07-21T07:59:57;22.00;;;14.63;;
4359;SDS011;2193;47.980;7.660;2022-07-21T08:02:22;14.83;;;13.23;;
4359;SDS011;2193;47.980;7.660;2022-07-21T08:04:47;18.40;;;12.30;;
4359;SDS011;2193;47.980;7.660;2022-07-21T08:07:12;17.50;;;12.30;;
4359;SDS011;2193;47.980;7.660;2022-07-21T08:09:38;18.73;;;11.10;;
4359;SDS011;2193;47.980;7.660;2022-07-21T08:12:04;15.50;;;11.33;;
4359;SDS011;2193;47.980;7.660;2022-07-21T08:14:29;14.37;;;11.60;;
4359;SDS011;2193;47.980;7.660;2022-07-21T08:16:54;22.10;;;14.03;;
4359;SDS011;2193;47.980;7.660;2022-07-21T08:19:20;12.40;;;10.53;;
4359;SDS011;2193;47.980;7.660;2022-07-21T08:21:45;15.50;;;9.83;;
4359;SDS011;2193;47.980;7.660;2022-07-21T08:24:10;11.33;;;9.93;;
4359;SDS011;2193;47.980;7.660;2022-07-21T08:26:35;11.40;;;9.60;;
4359;SDS011;2193;47.980;7.660;2022-07-21T08:29:02;15.03;;;10.80;;
4359;SDS011;2193;47.980;7.660;2022-07-21T08:31:27;11.73;;;10.17;;
4359;SDS011;2193;47.980;7.660;2022-07-21T08:33:53;15.20;;;9.93;;
4359;SDS011;2193;47.980;7.660;2022-07-21T08:36:18;11.80;;;10.40;;
4359;SDS011;2193;47.980;7.660;2022-07-21T08:38:43;13.53;;;11.57;;
4359;SDS011;2193;47.980;7.660;2022-07-21T08:41:09;13.73;;;10.83;;
4359;SDS011;2193;47.980;7.660;2022-07-21T08:43:34;12.37;;;10.70;;
4359;SDS011;2193;47.980;7.660;2022-07-21T08:46:00;12.70;;;11.40;;
4359;SDS011;2193;47.980;7.660;2022-07-21T08:48:26;12.63;;;11.33;;
4359;SDS011;2193;47.980;7.660;2022-07-21T08:50:51;13.43;;;11.23;;
4359;SDS011;2193;47.980;7.660;2022-07-21T08:53:16;10.90;;;9.80;;
4359;SDS011;2193;47.980;7.660;2022-07-21T08:55:42;11.73;;;9.83;;
4359;SDS011;2193;47.980;7.660;2022-07-21T08:58:10;10.23;;;9.20;;
4359;SDS011;2193;47.980;7.660;2022-07-21T09:00:37;11.27;;;9.90;;
4359;SDS011;2193;47.980;7.660;2022-07-21T09:03:11;11.00;;;10.00;;
4359;SDS011;2193;47.980;7.660;2022-07-21T09:05:36;9.33;;;8.17;;
4359;SDS011;2193;47.980;7.660;2022-07-21T09:08:02;8.97;;;8.07;;
4359;SDS011;2193;47.980;7.660;2022-07-21T09:10:28;8.20;;;7.40;;
4359;SDS011;2193;47.980;7.660;2022-07-21T09:12:54;9.37;;;7.80;;
4359;SDS011;2193;47.980;7.660;2022-07-21T09:15:20;9.93;;;7.70;;
4359;SDS011;2193;47.980;7.660;2022-07-21T09:17:46;9.53;;;7.47;;
4359;SDS011;2193;47.980;7.660;2022-07-21T09:20:25;8.07;;;7.20;;
4359;SDS011;2193;47.980;7.660;2022-07-21T09:25:34;8.33;;;7.30;;
4359;SDS011;2193;47.980;7.660;2022-07-21T09:28:09;10.53;;;7.57;;
4359;SDS011;2193;47.980;7.660;2022-07-21T09:33:19;8.97;;;7.47;;
4359;SDS011;2193;47.980;7.660;2022-07-21T09:35:52;10.27;;;7.33;;
4359;SDS011;2193;47.980;7.660;2022-07-21T09:38:17;10.00;;;7.40;;
4359;SDS011;2193;47.980;7.660;2022-07-21T09:40:48;7.10;;;6.43;;
4359;SDS011;2193;47.980;7.660;2022-07-21T09:43:30;8.77;;;7.27;;
4359;SDS011;2193;47.980;7.660;2022-07-21T09:45:55;8.00;;;7.20;;
4359;SDS011;2193;47.980;7.660;2022-07-21T09:48:31;9.47;;;7.40;;
4359;SDS011;2193;47.980;7.660;2022-07-21T09:50:56;7.70;;;7.00;;
4359;SDS011;2193;47.980;7.660;2022-07-21T09:53:21;7.10;;;6.40;;
4359;SDS011;2193;47.980;7.660;2022-07-21T09:55:46;8.73;;;6.83;;
4359;SDS011;2193;47.980;7.660;2022-07-21T09:58:11;7.80;;;5.40;;
4359;SDS011;2193;47.980;7.660;2022-07-21T10:00:37;15.57;;;6.13;;
4359;SDS011;2193;47.980;7.660;2022-07-21T10:03:02;7.10;;;6.40;;
4359;SDS011;2193;47.980;7.660;2022-07-21T10:05:28;10.73;;;6.30;;
4359;SDS011;2193;47.980;7.660;2022-07-21T10:07:54;11.50;;;5.93;;
4359;SDS011;2193;47.980;7.660;2022-07-21T10:10:19;8.47;;;6.30;;
4359;SDS011;2193;47.980;7.660;2022-07-21T10:12:45;6.30;;;5.70;;
4359;SDS011;2193;47.980;7.660;2022-07-21T10:15:10;6.70;;;5.33;;
4359;SDS011;2193;47.980;7.660;2022-07-21T10:17:35;6.73;;;4.73;;
4359;SDS011;2193;47.980;7.660;2022-07-21T10:25:16;5.43;;;4.50;;
4359;SDS011;2193;47.980;7.660;2022-07-21T10:30:36;7.00;;;5.27;;
4359;SDS011;2193;47.980;7.660;2022-07-21T10:33:02;5.63;;;4.90;;
4359;SDS011;2193;47.980;7.660;2022-07-21T10:35:28;5.70;;;5.07;;
4359;SDS011;2193;47.980;7.660;2022-07-21T10:37:54;5.90;;;5.20;;
4359;SDS011;2193;47.980;7.660;2022-07-21T10:42:44;4.73;;;4.20;;
4359;SDS011;2193;47.980;7.660;2022-07-21T10:47:54;4.77;;;4.27;;
4359;SDS011;2193;47.980;7.660;2022-07-21T10:50:29;8.97;;;5.30;;
4359;SDS011;2193;47.980;7.660;2022-07-21T10:52:58;7.13;;;5.00;;
4359;SDS011;2193;47.980;7.660;2022-07-21T10:55:25;8.70;;;4.70;;
4359;SDS011;2193;47.980;7.660;2022-07-21T11:00:36;5.73;;;5.10;;
4359;SDS011;2193;47.980;7.660;2022-07-21T11:03:12;5.07;;;4.63;;
4359;SDS011;2193;47.980;7.660;2022-07-21T11:05:38;5.93;;;3.90;;
4359;SDS011;2193;47.980;7.660;2022-07-21T11:08:23;4.83;;;4.10;;
4359;SDS011;2193;47.980;7.660;2022-07-21T11:10:54;7.53;;;4.20;;
4359;SDS011;2193;47.980;7.660;2022-07-21T11:13:32;4.90;;;4.40;;
4359;SDS011;2193;47.980;7.660;2022-07-21T11:16:16;4.87;;;4.33;;
4359;SDS011;2193;47.980;7.660;2022-07-21T11:18:41;5.57;;;4.50;;
4359;SDS011;2193;47.980;7.660;2022-07-21T11:26:08;4.40;;;4.10;;
4359;SDS011;2193;47.980;7.660;2022-07-21T11:28:33;5.43;;;4.77;;
4359;SDS011;2193;47.980;7.660;2022-07-21T11:33:34;5.90;;;4.60;;
4359;SDS011;2193;47.980;7.660;2022-07-21T11:36:00;4.43;;;4.07;;
4359;SDS011;2193;47.980;7.660;2022-07-21T11:38:25;4.73;;;4.33;;
4359;SDS011;2193;47.980;7.660;2022-07-21T11:40:50;6.53;;;4.30;;
4359;SDS011;2193;47.980;7.660;2022-07-21T11:43:15;5.03;;;4.00;;
4359;SDS011;2193;47.980;7.660;2022-07-21T11:45:50;4.43;;;4.03;;
4359;SDS011;2193;47.980;7.660;2022-07-21T11:48:29;4.07;;;3.70;;
4359;SDS011;2193;47.980;7.660;2022-07-21T11:51:00;4.87;;;4.20;;
4359;SDS011;2193;47.980;7.660;2022-07-21T11:53:26;4.23;;;3.87;;
4359;SDS011;2193;47.980;7.660;2022-07-21T11:55:51;7.03;;;4.30;;
4359;SDS011;2193;47.980;7.660;2022-07-21T11:58:18;4.40;;;4.00;;
4359;SDS011;2193;47.980;7.660;2022-07-21T12:00:44;5.30;;;3.60;;
4359;SDS011;2193;47.980;7.660;2022-07-21T12:03:11;11.87;;;4.70;;
4359;SDS011;2193;47.980;7.660;2022-07-21T12:05:38;5.10;;;3.73;;
4359;SDS011;2193;47.980;7.660;2022-07-21T12:08:04;4.40;;;4.00;;
4359;SDS011;2193;47.980;7.660;2022-07-21T12:10:29;4.43;;;3.57;;
4359;SDS011;2193;47.980;7.660;2022-07-21T12:13:02;4.43;;;4.03;;
4359;SDS011;2193;47.980;7.660;2022-07-21T12:15:29;4.70;;;3.80;;
4359;SDS011;2193;47.980;7.660;2022-07-21T12:18:03;4.70;;;3.27;;
4359;SDS011;2193;47.980;7.660;2022-07-21T12:20:32;4.30;;;3.90;;
4359;SDS011;2193;47.980;7.660;2022-07-21T12:22:59;4.30;;;3.90;;
4359;SDS011;2193;47.980;7.660;2022-07-21T12:25:32;5.43;;;3.97;;
4359;SDS011;2193;47.980;7.660;2022-07-21T12:27:58;4.03;;;3.70;;
4359;SDS011;2193;47.980;7.660;2022-07-21T12:30:34;5.93;;;3.83;;
4359;SDS011;2193;47.980;7.660;2022-07-21T12:33:04;3.80;;;3.50;;
4359;SDS011;2193;47.980;7.660;2022-07-21T12:35:30;4.30;;;3.90;;
4359;SDS011;2193;47.980;7.660;2022-07-21T12:40:20;5.85;;;3.95;;
4359;SDS011;2193;47.980;7.660;2022-07-21T12:42:46;6.07;;;3.67;;
4359;SDS011;2193;47.980;7.660;2022-07-21T12:45:15;4.47;;;4.10;;
4359;SDS011;2193;47.980;7.660;2022-07-21T12:47:41;5.10;;;4.07;;
4359;SDS011;2193;47.980;7.660;2022-07-21T12:50:07;4.17;;;3.50;;
4359;SDS011;2193;47.980;7.660;2022-07-21T12:52:32;4.63;;;4.20;;
4359;SDS011;2193;47.980;7.660;2022-07-21T12:54:59;4.20;;;3.57;;
4359;SDS011;2193;47.980;7.660;2022-07-21T12:57:28;6.17;;;4.10;;
4359;SDS011;2193;47.980;7.660;2022-07-21T12:59:54;6.17;;;3.97;;
4359;SDS011;2193;47.980;7.660;2022-07-21T13:02:20;4.20;;;3.80;;
4359;SDS011;2193;47.980;7.660;2022-07-21T13:04:45;8.00;;;3.80;;
4359;SDS011;2193;47.980;7.660;2022-07-21T13:07:10;4.17;;;3.87;;
4359;SDS011;2193;47.980;7.660;2022-07-21T13:09:35;6.77;;;4.23;;
4359;SDS011;2193;47.980;7.660;2022-07-21T13:12:01;7.97;;;3.90;;
4359;SDS011;2193;47.980;7.660;2022-07-21T13:14:26;3.60;;;3.30;;
4359;SDS011;2193;47.980;7.660;2022-07-21T13:16:51;4.27;;;3.67;;
4359;SDS011;2193;47.980;7.660;2022-07-21T13:19:17;5.50;;;3.90;;
4359;SDS011;2193;47.980;7.660;2022-07-21T13:21:42;5.53;;;4.40;;
4359;SDS011;2193;47.980;7.660;2022-07-21T13:24:07;4.77;;;4.13;;
4359;SDS011;2193;47.980;7.660;2022-07-21T13:26:33;9.27;;;3.80;;
4359;SDS011;2193;47.980;7.660;2022-07-21T13:28:58;5.23;;;3.67;;
4359;SDS011;2193;47.980;7.660;2022-07-21T13:31:25;6.80;;;4.03;;
4359;SDS011;2193;47.980;7.660;2022-07-21T13:33:51;7.70;;;4.43;;
4359;SDS011;2193;47.980;7.660;2022-07-21T13:36:16;7.53;;;4.10;;
4359;SDS011;2193;47.980;7.660;2022-07-21T13:38:41;5.20;;;4.03;;
4359;SDS011;2193;47.980;7.660;2022-07-21T13:41:06;5.67;;;4.00;;
4359;SDS011;2193;47.980;7.660;2022-07-21T13:43:32;6.07;;;4.40;;
4359;SDS011;2193;47.980;7.660;2022-07-21T13:45:57;8.30;;;4.50;;
4359;SDS011;2193;47.980;7.660;2022-07-21T13:48:22;6.70;;;4.30;;
4359;SDS011;2193;47.980;7.660;2022-07-21T13:50:47;5.63;;;4.00;;
4359;SDS011;2193;47.980;7.660;2022-07-21T13:53:13;5.30;;;4.33;;
4359;SDS011;2193;47.980;7.660;2022-07-21T13:55:38;4.30;;;3.47;;
4359;SDS011;2193;47.980;7.660;2022-07-21T13:58:03;6.27;;;3.93;;
4359;SDS011;2193;47.980;7.660;2022-07-21T14:00:28;6.00;;;3.20;;
4359;SDS011;2193;47.980;7.660;2022-07-21T14:02:54;5.13;;;3.73;;
4359;SDS011;2193;47.980;7.660;2022-07-21T14:05:19;3.80;;;3.50;;
4359;SDS011;2193;47.980;7.660;2022-07-21T14:07:44;5.10;;;3.60;;
4359;SDS011;2193;47.980;7.660;2022-07-21T14:10:09;4.53;;;3.73;;
4359;SDS011;2193;47.980;7.660;2022-07-21T14:12:35;3.80;;;3.47;;
4359;SDS011;2193;47.980;7.660;2022-07-21T14:15:00;4.70;;;3.50;;
4359;SDS011;2193;47.980;7.660;2022-07-21T14:17:25;6.20;;;3.60;;
4359;SDS011;2193;47.980;7.660;2022-07-21T14:19:50;8.13;;;3.90;;
4359;SDS011;2193;47.980;7.660;2022-07-21T14:22:16;8.50;;;3.73;;
4359;SDS011;2193;47.980;7.660;2022-07-21T14:24:43;3.57;;;3.20;;
4359;SDS011;2193;47.980;7.660;2022-07-21T14:27:26;4.90;;;3.70;;
4359;SDS011;2193;47.980;7.660;2022-07-21T14:29:52;4.33;;;3.67;;
4359;SDS011;2193;47.980;7.660;2022-07-21T14:32:18;4.00;;;3.37;;
4359;SDS011;2193;47.980;7.660;2022-07-21T14:34:46;4.43;;;3.10;;
4359;SDS011;2193;47.980;7.660;2022-07-21T14:37:12;3.67;;;3.17;;
4359;SDS011;2193;47.980;7.660;2022-07-21T14:39:37;3.33;;;3.10;;
4359;SDS011;2193;47.980;7.660;2022-07-21T14:42:02;6.90;;;3.17;;
4359;SDS011;2193;47.980;7.660;2022-07-21T14:44:27;3.43;;;3.23;;
4359;SDS011;2193;47.980;7.660;2022-07-21T14:46:53;3.90;;;3.50;;
4359;SDS011;2193;47.980;7.660;2022-07-21T14:49:18;3.70;;;3.40;;
4359;SDS011;2193;47.980;7.660;2022-07-21T14:51:43;3.87;;;3.53;;
4359;SDS011;2193;47.980;7.660;2022-07-21T14:54:08;3.60;;;3.30;;
4359;SDS011;2193;47.980;7.660;2022-07-21T14:56:33;3.43;;;3.10;;
4359;SDS011;2193;47.980;7.660;2022-07-21T14:58:58;3.60;;;3.30;;
4359;SDS011;2193;47.980;7.660;2022-07-21T15:01:24;3.40;;;3.20;;
4359;SDS011;2193;47.980;7.660;2022-07-21T15:03:50;3.50;;;3.30;;
4359;SDS011;2193;47.980;7.660;2022-07-21T15:06:15;3.23;;;3.03;;
4359;SDS011;2193;47.980;7.660;2022-07-21T15:08:40;3.47;;;3.27;;
4359;SDS011;2193;47.980;7.660;2022-07-21T15:11:05;3.73;;;3.37;;
4359;SDS011;2193;47.980;7.660;2022-07-21T15:13:30;3.53;;;3.23;;
4359;SDS011;2193;47.980;7.660;2022-07-21T15:15:56;4.33;;;3.13;;
4359;SDS011;2193;47.980;7.660;2022-07-21T15:18:21;3.97;;;3.67;;
4359;SDS011;2193;47.980;7.660;2022-07-21T15:20:46;3.30;;;2.97;;
4359;SDS011;2193;47.980;7.660;2022-07-21T15:23:12;3.53;;;3.23;;